sensor_id;sensor_type;location;lat;lon;timestamp;temperature;humidity
11067;DHT22;29763;50.904;5.530;2022-08-11T00:01:54;21.10;96.20
11067;DHT22;29763;50.904;5.530;2022-08-11T00:04:23;21.10;96.50
11067;DHT22;29763;50.904;5.530;2022-08-11T00:06:50;21.10;96.70
11067;DHT22;29763;50.904;5.530;2022-08-11T00:09:22;21.00;96.90
11067;DHT22;29763;50.904;5.530;2022-08-11T00:11:56;21.00;97.30
11067;DHT22;29763;50.904;5.530;2022-08-11T00:14:23;21.00;97.50
11067;DHT22;29763;50.904;5.530;2022-08-11T00:17:03;20.90;97.70
11067;DHT22;29763;50.904;5.530;2022-08-11T00:19:41;20.90;98.00
11067;DHT22;29763;50.904;5.530;2022-08-11T00:22:09;20.70;98.60
11067;DHT22;29763;50.904;5.530;2022-08-11T00:24:40;20.70;98.50
11067;DHT22;29763;50.904;5.530;2022-08-11T00:27:06;20.70;99.00
11067;DHT22;29763;50.904;5.530;2022-08-11T00:29:32;20.60;99.30
11067;DHT22;29763;50.904;5.530;2022-08-11T00:32:03;20.60;99.80
11067;DHT22;29763;50.904;5.530;2022-08-11T00:34:32;20.50;99.60
11067;DHT22;29763;50.904;5.530;2022-08-11T00:37:09;20.50;99.90
11067;DHT22;29763;50.904;5.530;2022-08-11T00:39:49;20.50;99.90
11067;DHT22;29763;50.904;5.530;2022-08-11T00:45:08;20.40;99.90
11067;DHT22;29763;50.904;5.530;2022-08-11T00:50:47;20.30;99.90
11067;DHT22;29763;50.904;5.530;2022-08-11T01:13:29;20.00;99.90
11067;DHT22;29763;50.904;5.530;2022-08-11T01:37:11;19.70;99.90
11067;DHT22;29763;50.904;5.530;2022-08-11T01:43:00;19.60;99.90
11067;DHT22;29763;50.904;5.530;2022-08-11T01:46:05;19.50;99.90
11067;DHT22;29763;50.904;5.530;2022-08-11T01:52:05;19.40;99.90
11067;DHT22;29763;50.904;5.530;2022-08-11T01:58:12;19.30;99.90
11067;DHT22;29763;50.904;5.530;2022-08-11T02:01:06;19.20;99.90
11067;DHT22;29763;50.904;5.530;2022-08-11T02:06:21;19.10;99.90
11067;DHT22;29763;50.904;5.530;2022-08-11T02:14:52;18.90;99.90
11067;DHT22;29763;50.904;5.530;2022-08-11T02:20:09;18.80;99.90
11067;DHT22;29763;50.904;5.530;2022-08-11T02:26:02;18.70;99.90
11067;DHT22;29763;50.904;5.530;2022-08-11T02:37:49;18.50;99.90
11067;DHT22;29763;50.904;5.530;2022-08-11T02:46:21;18.40;99.90
11067;DHT22;29763;50.904;5.530;2022-08-11T02:52:06;18.40;99.90
11067;DHT22;29763;50.904;5.530;2022-08-11T02:57:39;18.20;99.90
11067;DHT22;29763;50.904;5.530;2022-08-11T03:00:13;18.20;99.90
11067;DHT22;29763;50.904;5.530;2022-08-11T03:02:53;18.10;99.90
11067;DHT22;29763;50.904;5.530;2022-08-11T03:09:09;18.00;99.90
11067;DHT22;29763;50.904;5.530;2022-08-11T03:24:00;17.90;99.90
11067;DHT22;29763;50.904;5.530;2022-08-11T03:27:01;17.80;99.90
11067;DHT22;29763;50.904;5.530;2022-08-11T03:32:34;17.70;99.90
11067;DHT22;29763;50.904;5.530;2022-08-11T03:35:03;17.70;99.90
11067;DHT22;29763;50.904;5.530;2022-08-11T03:37:47;17.70;99.90
11067;DHT22;29763;50.904;5.530;2022-08-11T03:43:36;17.60;99.90
11067;DHT22;29763;50.904;5.530;2022-08-11T03:52:25;17.50;99.90
11067;DHT22;29763;50.904;5.530;2022-08-11T04:09:14;17.30;99.90
11067;DHT22;29763;50.904;5.530;2022-08-11T04:15:10;17.20;99.90
11067;DHT22;29763;50.904;5.530;2022-08-11T04:21:14;17.10;99.90
11067;DHT22;29763;50.904;5.530;2022-08-11T04:24:18;17.00;99.90
11067;DHT22;29763;50.904;5.530;2022-08-11T04:27:19;17.00;99.90
11067;DHT22;29763;50.904;5.530;2022-08-11T04:44:20;16.80;99.90
11067;DHT22;29763;50.904;5.530;2022-08-11T04:56:31;16.90;99.90
11067;DHT22;29763;50.904;5.530;2022-08-11T05:14:26;16.90;99.90
11067;DHT22;29763;50.904;5.530;2022-08-11T05:17:16;17.00;99.90
11067;DHT22;29763;50.904;5.530;2022-08-11T05:20:09;17.00;99.90
11067;DHT22;29763;50.904;5.530;2022-08-11T05:22:54;17.00;99.90
11067;DHT22;29763;50.904;5.530;2022-08-11T05:25:43;17.00;99.90
11067;DHT22;29763;50.904;5.530;2022-08-11T05:28:46;17.10;99.90
11067;DHT22;29763;50.904;5.530;2022-08-11T05:31:36;17.20;99.90
11067;DHT22;29763;50.904;5.530;2022-08-11T05:34:43;17.30;99.90
11067;DHT22;29763;50.904;5.530;2022-08-11T05:40:10;17.90;99.90
11067;DHT22;29763;50.904;5.530;2022-08-11T05:43:00;18.20;99.90
11067;DHT22;29763;50.904;5.530;2022-08-11T05:45:56;18.50;99.90
11067;DHT22;29763;50.904;5.530;2022-08-11T05:48:46;18.70;99.90
11067;DHT22;29763;50.904;5.530;2022-08-11T05:51:38;19.10;99.90
11067;DHT22;29763;50.904;5.530;2022-08-11T05:54:25;19.40;99.90
11067;DHT22;29763;50.904;5.530;2022-08-11T05:57:22;19.60;99.90
11067;DHT22;29763;50.904;5.530;2022-08-11T06:00:15;19.90;99.90
11067;DHT22;29763;50.904;5.530;2022-08-11T06:03:01;20.20;99.90
11067;DHT22;29763;50.904;5.530;2022-08-11T06:05:39;20.50;99.90
11067;DHT22;29763;50.904;5.530;2022-08-11T06:08:14;20.70;99.90
11067;DHT22;29763;50.904;5.530;2022-08-11T06:10:43;20.90;99.90
11067;DHT22;29763;50.904;5.530;2022-08-11T06:13:19;21.00;99.90
11067;DHT22;29763;50.904;5.530;2022-08-11T06:15:50;21.30;99.90
11067;DHT22;29763;50.904;5.530;2022-08-11T06:18:17;21.50;99.90
11067;DHT22;29763;50.904;5.530;2022-08-11T06:21:02;21.90;99.90
11067;DHT22;29763;50.904;5.530;2022-08-11T06:23:34;22.10;99.90
11067;DHT22;29763;50.904;5.530;2022-08-11T06:26:00;22.50;99.90
11067;DHT22;29763;50.904;5.530;2022-08-11T06:28:34;22.80;99.90
11067;DHT22;29763;50.904;5.530;2022-08-11T06:31:10;23.00;99.90
11067;DHT22;29763;50.904;5.530;2022-08-11T06:36:59;23.40;99.90
11067;DHT22;29763;50.904;5.530;2022-08-11T06:39:47;23.60;99.90
11067;DHT22;29763;50.904;5.530;2022-08-11T06:45:40;23.90;99.90
11067;DHT22;29763;50.904;5.530;2022-08-11T06:48:21;23.80;99.90
11067;DHT22;29763;50.904;5.530;2022-08-11T06:50:52;23.80;99.90
11067;DHT22;29763;50.904;5.530;2022-08-11T06:53:55;23.90;99.90
11067;DHT22;29763;50.904;5.530;2022-08-11T06:56:34;24.10;99.90
11067;DHT22;29763;50.904;5.530;2022-08-11T06:59:20;24.40;99.90
11067;DHT22;29763;50.904;5.530;2022-08-11T07:14:05;25.60;99.00
11067;DHT22;29763;50.904;5.530;2022-08-11T07:16:50;25.90;98.50
11067;DHT22;29763;50.904;5.530;2022-08-11T07:19:24;26.20;98.10
11067;DHT22;29763;50.904;5.530;2022-08-11T07:22:09;26.50;97.10
11067;DHT22;29763;50.904;5.530;2022-08-11T07:24:58;26.80;97.20
11067;DHT22;29763;50.904;5.530;2022-08-11T07:27:47;27.10;96.60
11067;DHT22;29763;50.904;5.530;2022-08-11T07:30:38;27.60;96.40
11067;DHT22;29763;50.904;5.530;2022-08-11T07:33:04;27.80;95.20
11067;DHT22;29763;50.904;5.530;2022-08-11T07:35:34;28.10;95.00
11067;DHT22;29763;50.904;5.530;2022-08-11T07:38:11;28.40;94.40
11067;DHT22;29763;50.904;5.530;2022-08-11T07:40:45;28.60;93.90
11067;DHT22;29763;50.904;5.530;2022-08-11T07:43:12;28.80;93.70
11067;DHT22;29763;50.904;5.530;2022-08-11T07:45:42;29.00;93.20
11067;DHT22;29763;50.904;5.530;2022-08-11T07:48:28;29.40;92.70
11067;DHT22;29763;50.904;5.530;2022-08-11T07:51:18;29.60;92.30
11067;DHT22;29763;50.904;5.530;2022-08-11T07:54:05;29.60;91.60
11067;DHT22;29763;50.904;5.530;2022-08-11T07:56:35;29.60;91.20
11067;DHT22;29763;50.904;5.530;2022-08-11T07:59:04;29.50;91.00
11067;DHT22;29763;50.904;5.530;2022-08-11T08:01:49;29.60;90.30
11067;DHT22;29763;50.904;5.530;2022-08-11T08:04:33;29.60;89.80
11067;DHT22;29763;50.904;5.530;2022-08-11T08:07:20;29.70;90.00
11067;DHT22;29763;50.904;5.530;2022-08-11T08:10:08;30.00;90.10
11067;DHT22;29763;50.904;5.530;2022-08-11T08:12:54;30.50;88.70
11067;DHT22;29763;50.904;5.530;2022-08-11T08:15:40;31.00;86.20
11067;DHT22;29763;50.904;5.530;2022-08-11T08:18:27;31.40;87.10
11067;DHT22;29763;50.904;5.530;2022-08-11T08:20:59;31.80;82.60
11067;DHT22;29763;50.904;5.530;2022-08-11T08:23:38;32.20;82.60
11067;DHT22;29763;50.904;5.530;2022-08-11T08:26:11;32.40;80.50
11067;DHT22;29763;50.904;5.530;2022-08-11T08:28:59;32.90;80.30
11067;DHT22;29763;50.904;5.530;2022-08-11T08:31:47;33.50;78.80
11067;DHT22;29763;50.904;5.530;2022-08-11T08:34:14;33.90;76.50
11067;DHT22;29763;50.904;5.530;2022-08-11T08:36:47;34.20;74.50
11067;DHT22;29763;50.904;5.530;2022-08-11T08:39:13;34.40;71.30
11067;DHT22;29763;50.904;5.530;2022-08-11T08:41:42;34.50;72.10
11067;DHT22;29763;50.904;5.530;2022-08-11T08:44:12;34.50;70.70
11067;DHT22;29763;50.904;5.530;2022-08-11T08:46:44;34.60;69.60
11067;DHT22;29763;50.904;5.530;2022-08-11T08:49:15;34.70;70.50
11067;DHT22;29763;50.904;5.530;2022-08-11T08:51:48;34.90;68.50
11067;DHT22;29763;50.904;5.530;2022-08-11T08:54:19;35.10;68.20
11067;DHT22;29763;50.904;5.530;2022-08-11T08:56:48;35.50;67.40
11067;DHT22;29763;50.904;5.530;2022-08-11T08:59:16;35.70;65.50
11067;DHT22;29763;50.904;5.530;2022-08-11T09:01:50;35.70;62.90
11067;DHT22;29763;50.904;5.530;2022-08-11T09:04:19;35.30;63.50
11067;DHT22;29763;50.904;5.530;2022-08-11T09:06:47;35.30;65.00
11067;DHT22;29763;50.904;5.530;2022-08-11T09:09:15;35.80;64.70
11067;DHT22;29763;50.904;5.530;2022-08-11T09:11:43;36.20;63.80
11067;DHT22;29763;50.904;5.530;2022-08-11T09:14:16;36.70;62.50
11067;DHT22;29763;50.904;5.530;2022-08-11T09:16:43;37.00;60.70
11067;DHT22;29763;50.904;5.530;2022-08-11T09:19:14;37.40;60.60
11067;DHT22;29763;50.904;5.530;2022-08-11T09:21:45;37.50;59.30
11067;DHT22;29763;50.904;5.530;2022-08-11T09:24:35;37.50;57.60
11067;DHT22;29763;50.904;5.530;2022-08-11T09:27:21;36.50;56.60
11067;DHT22;29763;50.904;5.530;2022-08-11T09:29:47;36.60;57.00
11067;DHT22;29763;50.904;5.530;2022-08-11T09:32:19;36.80;56.10
11067;DHT22;29763;50.904;5.530;2022-08-11T09:34:46;37.20;55.70
11067;DHT22;29763;50.904;5.530;2022-08-11T09:37:14;37.60;55.50
11067;DHT22;29763;50.904;5.530;2022-08-11T09:39:59;37.90;55.10
11067;DHT22;29763;50.904;5.530;2022-08-11T09:42:44;37.30;54.20
11067;DHT22;29763;50.904;5.530;2022-08-11T09:45:31;36.90;54.60
11067;DHT22;29763;50.904;5.530;2022-08-11T09:47:59;36.70;54.50
11067;DHT22;29763;50.904;5.530;2022-08-11T09:50:26;36.40;54.20
11067;DHT22;29763;50.904;5.530;2022-08-11T09:52:53;36.40;55.10
11067;DHT22;29763;50.904;5.530;2022-08-11T09:55:19;36.80;55.40
11067;DHT22;29763;50.904;5.530;2022-08-11T09:57:46;37.30;54.80
11067;DHT22;29763;50.904;5.530;2022-08-11T10:00:40;37.80;53.90
11067;DHT22;29763;50.904;5.530;2022-08-11T10:03:20;38.30;53.20
11067;DHT22;29763;50.904;5.530;2022-08-11T10:05:49;38.60;53.00
11067;DHT22;29763;50.904;5.530;2022-08-11T10:08:37;38.20;51.70
11067;DHT22;29763;50.904;5.530;2022-08-11T10:11:05;38.00;52.50
11067;DHT22;29763;50.904;5.530;2022-08-11T10:13:36;38.30;52.60
11067;DHT22;29763;50.904;5.530;2022-08-11T10:16:28;38.60;52.20
11067;DHT22;29763;50.904;5.530;2022-08-11T10:18:55;38.70;50.90
11067;DHT22;29763;50.904;5.530;2022-08-11T10:21:46;39.00;51.60
11067;DHT22;29763;50.904;5.530;2022-08-11T10:24:31;39.10;51.40
11067;DHT22;29763;50.904;5.530;2022-08-11T10:27:17;39.40;50.00
11067;DHT22;29763;50.904;5.530;2022-08-11T10:29:44;39.10;49.60
11067;DHT22;29763;50.904;5.530;2022-08-11T10:32:30;38.30;50.30
11067;DHT22;29763;50.904;5.530;2022-08-11T10:35:17;37.80;50.40
11067;DHT22;29763;50.904;5.530;2022-08-11T10:37:46;38.00;51.20
11067;DHT22;29763;50.904;5.530;2022-08-11T10:40:17;38.10;49.30
11067;DHT22;29763;50.904;5.530;2022-08-11T10:42:53;37.90;48.40
11067;DHT22;29763;50.904;5.530;2022-08-11T10:45:39;37.90;50.10
11067;DHT22;29763;50.904;5.530;2022-08-11T10:48:44;38.60;50.30
11067;DHT22;29763;50.904;5.530;2022-08-11T10:51:12;38.70;48.50
11067;DHT22;29763;50.904;5.530;2022-08-11T10:53:44;38.50;47.70
11067;DHT22;29763;50.904;5.530;2022-08-11T10:56:49;37.80;47.80
11067;DHT22;29763;50.904;5.530;2022-08-11T10:59:35;37.30;47.70
11067;DHT22;29763;50.904;5.530;2022-08-11T11:02:00;37.30;49.50
11067;DHT22;29763;50.904;5.530;2022-08-11T11:07:22;37.60;49.50
11067;DHT22;29763;50.904;5.530;2022-08-11T11:09:53;37.20;48.50
11067;DHT22;29763;50.904;5.530;2022-08-11T11:12:30;37.10;49.80
11067;DHT22;29763;50.904;5.530;2022-08-11T11:15:21;36.80;48.70
11067;DHT22;29763;50.904;5.530;2022-08-11T11:18:23;36.60;50.30
11067;DHT22;29763;50.904;5.530;2022-08-11T11:21:07;36.20;50.00
11067;DHT22;29763;50.904;5.530;2022-08-11T11:37:42;37.60;49.00
11067;DHT22;29763;50.904;5.530;2022-08-11T11:40:10;37.10;47.90
11067;DHT22;29763;50.904;5.530;2022-08-11T11:42:39;37.00;47.80
11067;DHT22;29763;50.904;5.530;2022-08-11T11:45:08;37.40;47.80
11067;DHT22;29763;50.904;5.530;2022-08-11T11:47:35;37.90;48.00
11067;DHT22;29763;50.904;5.530;2022-08-11T11:50:04;38.00;46.50
11067;DHT22;29763;50.904;5.530;2022-08-11T11:52:31;37.40;46.10
11067;DHT22;29763;50.904;5.530;2022-08-11T11:54:57;37.00;48.10
11067;DHT22;29763;50.904;5.530;2022-08-11T11:57:25;36.60;48.20
11067;DHT22;29763;50.904;5.530;2022-08-11T12:00:10;36.40;47.20
11067;DHT22;29763;50.904;5.530;2022-08-11T12:02:57;36.30;47.10
11067;DHT22;29763;50.904;5.530;2022-08-11T12:05:25;36.30;47.40
11067;DHT22;29763;50.904;5.530;2022-08-11T12:07:53;35.80;46.40
11067;DHT22;29763;50.904;5.530;2022-08-11T12:13:11;35.90;47.60
11067;DHT22;29763;50.904;5.530;2022-08-11T12:15:58;36.10;46.50
11067;DHT22;29763;50.904;5.530;2022-08-11T12:18:31;35.90;47.90
11067;DHT22;29763;50.904;5.530;2022-08-11T12:21:00;36.00;47.20
11067;DHT22;29763;50.904;5.530;2022-08-11T12:23:26;36.30;48.00
11067;DHT22;29763;50.904;5.530;2022-08-11T12:26:14;36.40;46.70
11067;DHT22;29763;50.904;5.530;2022-08-11T12:29:00;36.30;45.70
11067;DHT22;29763;50.904;5.530;2022-08-11T12:31:31;36.30;46.00
11067;DHT22;29763;50.904;5.530;2022-08-11T12:34:05;36.30;46.30
11067;DHT22;29763;50.904;5.530;2022-08-11T12:36:56;36.50;46.70
11067;DHT22;29763;50.904;5.530;2022-08-11T12:39:26;36.40;46.40
11067;DHT22;29763;50.904;5.530;2022-08-11T12:42:16;36.60;46.30
11067;DHT22;29763;50.904;5.530;2022-08-11T12:45:02;36.20;46.00
11067;DHT22;29763;50.904;5.530;2022-08-11T12:47:51;35.50;45.10
11067;DHT22;29763;50.904;5.530;2022-08-11T12:50:36;35.40;46.00
11067;DHT22;29763;50.904;5.530;2022-08-11T12:53:25;35.60;46.40
11067;DHT22;29763;50.904;5.530;2022-08-11T12:55:54;35.90;44.80
11067;DHT22;29763;50.904;5.530;2022-08-11T12:58:40;35.70;46.10
11067;DHT22;29763;50.904;5.530;2022-08-11T13:01:07;35.60;44.50
11067;DHT22;29763;50.904;5.530;2022-08-11T13:03:53;35.40;44.60
11067;DHT22;29763;50.904;5.530;2022-08-11T13:06:39;35.60;45.50
11067;DHT22;29763;50.904;5.530;2022-08-11T13:09:07;35.40;44.60
11067;DHT22;29763;50.904;5.530;2022-08-11T13:11:35;35.50;44.90
11067;DHT22;29763;50.904;5.530;2022-08-11T13:14:20;35.80;46.00
11067;DHT22;29763;50.904;5.530;2022-08-11T13:16:47;36.00;46.00
11067;DHT22;29763;50.904;5.530;2022-08-11T13:19:32;36.10;43.40
11067;DHT22;29763;50.904;5.530;2022-08-11T13:22:00;36.00;44.00
11067;DHT22;29763;50.904;5.530;2022-08-11T13:24:27;36.10;45.10
11067;DHT22;29763;50.904;5.530;2022-08-11T13:26:53;36.10;45.30
11067;DHT22;29763;50.904;5.530;2022-08-11T13:29:21;36.00;44.40
11067;DHT22;29763;50.904;5.530;2022-08-11T13:31:49;35.60;44.50
11067;DHT22;29763;50.904;5.530;2022-08-11T13:34:16;35.50;45.20
11067;DHT22;29763;50.904;5.530;2022-08-11T13:36:44;35.60;45.20
11067;DHT22;29763;50.904;5.530;2022-08-11T13:39:11;35.40;44.80
11067;DHT22;29763;50.904;5.530;2022-08-11T13:41:40;35.20;44.20
11067;DHT22;29763;50.904;5.530;2022-08-11T13:44:10;35.20;44.80
11067;DHT22;29763;50.904;5.530;2022-08-11T13:46:38;35.60;44.80
11067;DHT22;29763;50.904;5.530;2022-08-11T13:49:06;35.60;44.60
11067;DHT22;29763;50.904;5.530;2022-08-11T13:51:36;35.90;44.40
11067;DHT22;29763;50.904;5.530;2022-08-11T13:56:31;36.10;44.30
11067;DHT22;29763;50.904;5.530;2022-08-11T13:58:57;36.10;44.50
11067;DHT22;29763;50.904;5.530;2022-08-11T14:01:28;35.70;45.10
11067;DHT22;29763;50.904;5.530;2022-08-11T14:04:00;35.50;45.70
11067;DHT22;29763;50.904;5.530;2022-08-11T14:06:27;35.30;45.80
11067;DHT22;29763;50.904;5.530;2022-08-11T14:08:54;35.30;46.20
11067;DHT22;29763;50.904;5.530;2022-08-11T14:11:20;35.40;46.10
11067;DHT22;29763;50.904;5.530;2022-08-11T14:14:07;35.30;46.10
11067;DHT22;29763;50.904;5.530;2022-08-11T14:16:40;35.40;47.10
11067;DHT22;29763;50.904;5.530;2022-08-11T14:19:09;35.60;46.60
11067;DHT22;29763;50.904;5.530;2022-08-11T14:21:40;35.80;45.80
11067;DHT22;29763;50.904;5.530;2022-08-11T14:24:26;35.60;45.20
11067;DHT22;29763;50.904;5.530;2022-08-11T14:26:53;35.30;45.10
11067;DHT22;29763;50.904;5.530;2022-08-11T14:29:21;35.10;45.20
11067;DHT22;29763;50.904;5.530;2022-08-11T14:31:56;34.90;45.60
11067;DHT22;29763;50.904;5.530;2022-08-11T14:34:26;34.70;45.80
11067;DHT22;29763;50.904;5.530;2022-08-11T14:37:14;35.00;46.10
11067;DHT22;29763;50.904;5.530;2022-08-11T14:39:43;35.20;45.50
11067;DHT22;29763;50.904;5.530;2022-08-11T14:42:14;35.10;45.60
11067;DHT22;29763;50.904;5.530;2022-08-11T14:45:03;35.00;45.50
11067;DHT22;29763;50.904;5.530;2022-08-11T14:47:52;35.00;46.00
11067;DHT22;29763;50.904;5.530;2022-08-11T14:50:26;34.90;46.20
11067;DHT22;29763;50.904;5.530;2022-08-11T14:53:15;34.90;46.70
11067;DHT22;29763;50.904;5.530;2022-08-11T14:55:43;34.90;45.50
11067;DHT22;29763;50.904;5.530;2022-08-11T14:58:29;34.80;46.00
11067;DHT22;29763;50.904;5.530;2022-08-11T15:01:01;34.90;47.10
11067;DHT22;29763;50.904;5.530;2022-08-11T15:03:30;35.00;45.10
11067;DHT22;29763;50.904;5.530;2022-08-11T15:06:01;35.00;46.40
11067;DHT22;29763;50.904;5.530;2022-08-11T15:08:32;35.10;47.30
11067;DHT22;29763;50.904;5.530;2022-08-11T15:11:19;35.40;46.60
11067;DHT22;29763;50.904;5.530;2022-08-11T15:14:06;35.30;46.50
11067;DHT22;29763;50.904;5.530;2022-08-11T15:16:34;35.20;45.30
11067;DHT22;29763;50.904;5.530;2022-08-11T15:19:19;35.30;45.90
11067;DHT22;29763;50.904;5.530;2022-08-11T15:21:46;35.10;46.20
11067;DHT22;29763;50.904;5.530;2022-08-11T15:24:31;34.80;47.40
11067;DHT22;29763;50.904;5.530;2022-08-11T15:27:01;34.80;46.50
11067;DHT22;29763;50.904;5.530;2022-08-11T15:29:50;35.00;48.00
11067;DHT22;29763;50.904;5.530;2022-08-11T15:32:38;35.10;46.60
11067;DHT22;29763;50.904;5.530;2022-08-11T15:35:24;34.90;46.80
11067;DHT22;29763;50.904;5.530;2022-08-11T15:38:11;34.70;46.80
11067;DHT22;29763;50.904;5.530;2022-08-11T15:40:39;34.60;47.60
11067;DHT22;29763;50.904;5.530;2022-08-11T15:43:32;34.80;47.60
11067;DHT22;29763;50.904;5.530;2022-08-11T15:46:46;34.80;48.00
11067;DHT22;29763;50.904;5.530;2022-08-11T15:49:22;34.90;47.50
11067;DHT22;29763;50.904;5.530;2022-08-11T15:52:00;35.00;47.60
11067;DHT22;29763;50.904;5.530;2022-08-11T15:54:29;35.00;46.60
11067;DHT22;29763;50.904;5.530;2022-08-11T15:56:58;34.90;46.70
11067;DHT22;29763;50.904;5.530;2022-08-11T15:59:29;34.90;46.90
11067;DHT22;29763;50.904;5.530;2022-08-11T16:02:16;34.50;47.10
11067;DHT22;29763;50.904;5.530;2022-08-11T16:05:05;34.50;47.00
11067;DHT22;29763;50.904;5.530;2022-08-11T16:07:32;34.50;47.40
11067;DHT22;29763;50.904;5.530;2022-08-11T16:10:09;34.50;47.90
11067;DHT22;29763;50.904;5.530;2022-08-11T16:13:05;34.60;47.90
11067;DHT22;29763;50.904;5.530;2022-08-11T16:15:39;34.90;47.50
11067;DHT22;29763;50.904;5.530;2022-08-11T16:18:29;34.90;47.10
11067;DHT22;29763;50.904;5.530;2022-08-11T16:21:09;34.80;47.10
11067;DHT22;29763;50.904;5.530;2022-08-11T16:23:37;34.90;47.90
11067;DHT22;29763;50.904;5.530;2022-08-11T16:26:05;35.00;48.20
11067;DHT22;29763;50.904;5.530;2022-08-11T16:28:33;35.00;48.20
11067;DHT22;29763;50.904;5.530;2022-08-11T16:31:02;34.90;47.70
11067;DHT22;29763;50.904;5.530;2022-08-11T16:33:30;34.50;47.50
11067;DHT22;29763;50.904;5.530;2022-08-11T16:35:57;34.20;48.00
11067;DHT22;29763;50.904;5.530;2022-08-11T16:38:49;34.00;48.10
11067;DHT22;29763;50.904;5.530;2022-08-11T16:41:18;33.80;48.50
11067;DHT22;29763;50.904;5.530;2022-08-11T16:44:07;33.80;48.80
11067;DHT22;29763;50.904;5.530;2022-08-11T16:47:01;33.80;49.10
11067;DHT22;29763;50.904;5.530;2022-08-11T16:49:40;33.90;48.60
11067;DHT22;29763;50.904;5.530;2022-08-11T16:52:09;33.70;48.90
11067;DHT22;29763;50.904;5.530;2022-08-11T16:54:39;33.60;48.40
11067;DHT22;29763;50.904;5.530;2022-08-11T16:57:12;33.40;48.40
11067;DHT22;29763;50.904;5.530;2022-08-11T17:00:03;33.30;49.30
11067;DHT22;29763;50.904;5.530;2022-08-11T17:02:41;33.40;49.80
11067;DHT22;29763;50.904;5.530;2022-08-11T17:05:27;33.60;49.40
11067;DHT22;29763;50.904;5.530;2022-08-11T17:08:15;33.70;49.40
11067;DHT22;29763;50.904;5.530;2022-08-11T17:11:04;33.40;49.90
11067;DHT22;29763;50.904;5.530;2022-08-11T17:14:08;33.30;50.10
11067;DHT22;29763;50.904;5.530;2022-08-11T17:16:38;33.00;51.00
11067;DHT22;29763;50.904;5.530;2022-08-11T17:19:12;32.80;51.20
11067;DHT22;29763;50.904;5.530;2022-08-11T17:21:41;32.80;51.70
11067;DHT22;29763;50.904;5.530;2022-08-11T17:24:28;32.70;51.80
11067;DHT22;29763;50.904;5.530;2022-08-11T17:26:56;32.70;51.90
11067;DHT22;29763;50.904;5.530;2022-08-11T17:29:59;32.60;51.80
11067;DHT22;29763;50.904;5.530;2022-08-11T17:32:20;32.40;52.30
11067;DHT22;29763;50.904;5.530;2022-08-11T17:35:13;32.10;52.70
11067;DHT22;29763;50.904;5.530;2022-08-11T17:38:20;31.90;53.30
11067;DHT22;29763;50.904;5.530;2022-08-11T17:40:52;31.80;53.40
11067;DHT22;29763;50.904;5.530;2022-08-11T17:43:37;31.50;53.90
11067;DHT22;29763;50.904;5.530;2022-08-11T17:46:23;31.40;54.30
11067;DHT22;29763;50.904;5.530;2022-08-11T17:49:10;31.30;54.00
11067;DHT22;29763;50.904;5.530;2022-08-11T17:51:38;31.10;54.80
11067;DHT22;29763;50.904;5.530;2022-08-11T17:54:26;30.90;55.10
11067;DHT22;29763;50.904;5.530;2022-08-11T17:57:12;30.80;55.40
11067;DHT22;29763;50.904;5.530;2022-08-11T17:59:58;30.70;55.20
11067;DHT22;29763;50.904;5.530;2022-08-11T18:05:16;30.50;56.10
11067;DHT22;29763;50.904;5.530;2022-08-11T18:07:45;30.40;55.90
11067;DHT22;29763;50.904;5.530;2022-08-11T18:10:31;30.30;55.70
11067;DHT22;29763;50.904;5.530;2022-08-11T18:13:24;30.20;56.00
11067;DHT22;29763;50.904;5.530;2022-08-11T18:16:11;30.00;56.40
11067;DHT22;29763;50.904;5.530;2022-08-11T18:18:56;29.80;56.50
11067;DHT22;29763;50.904;5.530;2022-08-11T18:21:45;29.70;57.10
11067;DHT22;29763;50.904;5.530;2022-08-11T18:24:40;29.60;57.70
11067;DHT22;29763;50.904;5.530;2022-08-11T18:27:31;29.40;57.70
11067;DHT22;29763;50.904;5.530;2022-08-11T18:30:16;29.20;58.20
11067;DHT22;29763;50.904;5.530;2022-08-11T18:33:02;29.10;58.00
11067;DHT22;29763;50.904;5.530;2022-08-11T18:35:52;29.00;58.60
11067;DHT22;29763;50.904;5.530;2022-08-11T18:38:39;28.90;58.70
11067;DHT22;29763;50.904;5.530;2022-08-11T18:41:26;28.80;59.00
11067;DHT22;29763;50.904;5.530;2022-08-11T18:44:14;28.60;59.50
11067;DHT22;29763;50.904;5.530;2022-08-11T18:47:04;28.40;60.20
11067;DHT22;29763;50.904;5.530;2022-08-11T18:49:51;28.30;61.40
11067;DHT22;29763;50.904;5.530;2022-08-11T18:52:36;28.10;62.20
11067;DHT22;29763;50.904;5.530;2022-08-11T18:55:24;27.90;62.60
11067;DHT22;29763;50.904;5.530;2022-08-11T18:58:11;27.70;63.10
11067;DHT22;29763;50.904;5.530;2022-08-11T19:01:01;27.60;64.20
11067;DHT22;29763;50.904;5.530;2022-08-11T19:03:52;27.40;65.10
11067;DHT22;29763;50.904;5.530;2022-08-11T19:06:40;27.30;65.70
11067;DHT22;29763;50.904;5.530;2022-08-11T19:09:32;27.20;66.40
11067;DHT22;29763;50.904;5.530;2022-08-11T19:12:18;27.00;66.30
11067;DHT22;29763;50.904;5.530;2022-08-11T19:15:04;26.80;67.10
11067;DHT22;29763;50.904;5.530;2022-08-11T19:17:51;26.70;67.70
11067;DHT22;29763;50.904;5.530;2022-08-11T19:20:37;26.50;68.60
11067;DHT22;29763;50.904;5.530;2022-08-11T19:23:32;26.40;69.20
11067;DHT22;29763;50.904;5.530;2022-08-11T19:26:17;26.30;69.40
11067;DHT22;29763;50.904;5.530;2022-08-11T19:29:04;26.20;70.20
11067;DHT22;29763;50.904;5.530;2022-08-11T19:31:51;26.10;71.00
11067;DHT22;29763;50.904;5.530;2022-08-11T19:34:37;25.90;72.20
11067;DHT22;29763;50.904;5.530;2022-08-11T19:37:22;25.80;71.30
11067;DHT22;29763;50.904;5.530;2022-08-11T19:40:08;25.70;70.30
11067;DHT22;29763;50.904;5.530;2022-08-11T19:42:55;25.70;71.20
11067;DHT22;29763;50.904;5.530;2022-08-11T19:45:42;25.60;71.40
11067;DHT22;29763;50.904;5.530;2022-08-11T19:48:27;25.50;72.30
11067;DHT22;29763;50.904;5.530;2022-08-11T19:51:13;25.50;71.90
11067;DHT22;29763;50.904;5.530;2022-08-11T19:53:59;25.40;72.10
11067;DHT22;29763;50.904;5.530;2022-08-11T19:56:44;25.30;72.20
11067;DHT22;29763;50.904;5.530;2022-08-11T19:59:30;25.20;72.60
11067;DHT22;29763;50.904;5.530;2022-08-11T20:02:14;25.20;73.00
11067;DHT22;29763;50.904;5.530;2022-08-11T20:04:59;25.10;73.20
11067;DHT22;29763;50.904;5.530;2022-08-11T20:07:45;24.90;73.80
11067;DHT22;29763;50.904;5.530;2022-08-11T20:10:33;24.80;74.30
11067;DHT22;29763;50.904;5.530;2022-08-11T20:13:21;24.70;74.80
11067;DHT22;29763;50.904;5.530;2022-08-11T20:16:11;24.60;75.50
11067;DHT22;29763;50.904;5.530;2022-08-11T20:19:00;24.50;76.50
11067;DHT22;29763;50.904;5.530;2022-08-11T20:21:48;24.40;77.30
11067;DHT22;29763;50.904;5.530;2022-08-11T20:24:34;24.30;77.90
11067;DHT22;29763;50.904;5.530;2022-08-11T20:27:19;24.20;78.90
11067;DHT22;29763;50.904;5.530;2022-08-11T20:30:04;24.10;79.50
11067;DHT22;29763;50.904;5.530;2022-08-11T20:32:50;24.10;80.70